sensor_id;sensor_type;location;lat;lon;timestamp;temperature;humidity
21722;DHT22;11023;48.274;7.794;2022-11-11T00:01:31;7.50;99.90
21722;DHT22;11023;48.274;7.794;2022-11-11T00:03:57;7.50;99.90
21722;DHT22;11023;48.274;7.794;2022-11-11T00:06:23;7.40;99.90
21722;DHT22;11023;48.274;7.794;2022-11-11T00:08:48;7.40;99.90
21722;DHT22;11023;48.274;7.794;2022-11-11T00:11:15;7.40;99.90
21722;DHT22;11023;48.274;7.794;2022-11-11T00:13:42;7.30;99.90
21722;DHT22;11023;48.274;7.794;2022-11-11T00:16:17;7.30;99.90
21722;DHT22;11023;48.274;7.794;2022-11-11T00:18:43;7.30;99.90
21722;DHT22;11023;48.274;7.794;2022-11-11T00:21:28;7.20;99.90
21722;DHT22;11023;48.274;7.794;2022-11-11T00:24:20;7.20;99.90
21722;DHT22;11023;48.274;7.794;2022-11-11T00:27:07;7.20;99.90
21722;DHT22;11023;48.274;7.794;2022-11-11T00:29:33;7.20;99.90
21722;DHT22;11023;48.274;7.794;2022-11-11T00:31:58;7.10;99.90
21722;DHT22;11023;48.274;7.794;2022-11-11T00:34:43;7.10;99.90
21722;DHT22;11023;48.274;7.794;2022-11-11T00:37:28;7.10;99.90
21722;DHT22;11023;48.274;7.794;2022-11-11T00:39:54;7.00;99.90
21722;DHT22;11023;48.274;7.794;2022-11-11T00:42:21;7.00;99.90
21722;DHT22;11023;48.274;7.794;2022-11-11T00:44:47;6.90;99.90
21722;DHT22;11023;48.274;7.794;2022-11-11T00:47:14;6.90;99.90
21722;DHT22;11023;48.274;7.794;2022-11-11T00:49:58;6.90;99.90
21722;DHT22;11023;48.274;7.794;2022-11-11T00:52:47;6.80;99.90
21722;DHT22;11023;48.274;7.794;2022-11-11T00:55:23;6.80;99.90
21722;DHT22;11023;48.274;7.794;2022-11-11T00:57:49;6.70;99.90
21722;DHT22;11023;48.274;7.794;2022-11-11T01:00:15;6.60;99.90
21722;DHT22;11023;48.274;7.794;2022-11-11T01:02:41;6.60;99.90
21722;DHT22;11023;48.274;7.794;2022-11-11T01:05:07;6.50;99.90
21722;DHT22;11023;48.274;7.794;2022-11-11T01:07:32;6.50;99.90
21722;DHT22;11023;48.274;7.794;2022-11-11T01:09:59;6.40;99.90
21722;DHT22;11023;48.274;7.794;2022-11-11T01:12:24;6.50;99.90
21722;DHT22;11023;48.274;7.794;2022-11-11T01:14:50;6.50;99.90
21722;DHT22;11023;48.274;7.794;2022-11-11T01:17:18;6.50;99.90
21722;DHT22;11023;48.274;7.794;2022-11-11T01:19:44;6.50;99.90
21722;DHT22;11023;48.274;7.794;2022-11-11T01:22:09;6.40;99.90
21722;DHT22;11023;48.274;7.794;2022-11-11T01:24:36;6.40;99.90
21722;DHT22;11023;48.274;7.794;2022-11-11T01:27:03;6.30;99.90
21722;DHT22;11023;48.274;7.794;2022-11-11T01:29:29;6.20;99.90
21722;DHT22;11023;48.274;7.794;2022-11-11T01:31:55;6.20;99.90
21722;DHT22;11023;48.274;7.794;2022-11-11T01:34:21;6.20;99.90
21722;DHT22;11023;48.274;7.794;2022-11-11T01:36:48;6.10;99.90
21722;DHT22;11023;48.274;7.794;2022-11-11T01:39:13;6.00;99.90
21722;DHT22;11023;48.274;7.794;2022-11-11T01:41:39;6.00;99.90
21722;DHT22;11023;48.274;7.794;2022-11-11T01:46:45;5.80;99.90
21722;DHT22;11023;48.274;7.794;2022-11-11T01:49:23;5.80;99.90
21722;DHT22;11023;48.274;7.794;2022-11-11T01:54:41;5.70;99.90
21722;DHT22;11023;48.274;7.794;2022-11-11T01:57:23;5.60;99.90
21722;DHT22;11023;48.274;7.794;2022-11-11T01:59:54;5.60;99.90
21722;DHT22;11023;48.274;7.794;2022-11-11T02:02:54;5.60;99.90
21722;DHT22;11023;48.274;7.794;2022-11-11T02:05:23;5.60;99.90
21722;DHT22;11023;48.274;7.794;2022-11-11T02:10:43;5.60;99.90
21722;DHT22;11023;48.274;7.794;2022-11-11T02:13:12;5.60;99.90
21722;DHT22;11023;48.274;7.794;2022-11-11T02:15:57;5.50;99.90
21722;DHT22;11023;48.274;7.794;2022-11-11T02:18:23;5.50;99.90
21722;DHT22;11023;48.274;7.794;2022-11-11T02:20:49;5.60;99.90
21722;DHT22;11023;48.274;7.794;2022-11-11T02:23:21;5.50;99.90
21722;DHT22;11023;48.274;7.794;2022-11-11T02:25:49;5.50;99.90
21722;DHT22;11023;48.274;7.794;2022-11-11T02:28:17;5.50;99.90
21722;DHT22;11023;48.274;7.794;2022-11-11T02:30:44;5.50;99.90
21722;DHT22;11023;48.274;7.794;2022-11-11T02:33:10;5.50;99.90
21722;DHT22;11023;48.274;7.794;2022-11-11T02:35:40;5.50;99.90
21722;DHT22;11023;48.274;7.794;2022-11-11T02:38:09;5.50;99.90
21722;DHT22;11023;48.274;7.794;2022-11-11T02:40:40;5.60;99.90
21722;DHT22;11023;48.274;7.794;2022-11-11T02:43:32;5.50;99.90
21722;DHT22;11023;48.274;7.794;2022-11-11T02:46:00;5.50;99.90
21722;DHT22;11023;48.274;7.794;2022-11-11T02:48:26;5.50;99.90
21722;DHT22;11023;48.274;7.794;2022-11-11T02:50:52;5.50;99.90
21722;DHT22;11023;48.274;7.794;2022-11-11T02:53:18;5.50;99.90
21722;DHT22;11023;48.274;7.794;2022-11-11T02:55:44;5.40;99.90
21722;DHT22;11023;48.274;7.794;2022-11-11T02:58:10;5.40;99.90
21722;DHT22;11023;48.274;7.794;2022-11-11T03:03:04;5.40;99.90
21722;DHT22;11023;48.274;7.794;2022-11-11T03:05:30;5.40;99.90
21722;DHT22;11023;48.274;7.794;2022-11-11T03:07:56;5.30;99.90
21722;DHT22;11023;48.274;7.794;2022-11-11T03:10:21;5.30;99.90
21722;DHT22;11023;48.274;7.794;2022-11-11T03:12:47;5.30;99.90
21722;DHT22;11023;48.274;7.794;2022-11-11T03:15:12;5.30;99.90
21722;DHT22;11023;48.274;7.794;2022-11-11T03:17:38;5.30;99.90
21722;DHT22;11023;48.274;7.794;2022-11-11T03:20:15;5.30;99.90
21722;DHT22;11023;48.274;7.794;2022-11-11T03:23:04;5.30;99.90
21722;DHT22;11023;48.274;7.794;2022-11-11T03:25:30;5.30;99.90
21722;DHT22;11023;48.274;7.794;2022-11-11T03:28:06;5.40;99.90
21722;DHT22;11023;48.274;7.794;2022-11-11T03:30:32;5.40;99.90
21722;DHT22;11023;48.274;7.794;2022-11-11T03:32:59;5.40;99.90
21722;DHT22;11023;48.274;7.794;2022-11-11T03:35:24;5.40;99.90
21722;DHT22;11023;48.274;7.794;2022-11-11T03:37:50;5.40;99.90
21722;DHT22;11023;48.274;7.794;2022-11-11T03:40:34;5.40;99.90
21722;DHT22;11023;48.274;7.794;2022-11-11T03:43:00;5.50;99.90
21722;DHT22;11023;48.274;7.794;2022-11-11T03:45:26;5.50;99.90
21722;DHT22;11023;48.274;7.794;2022-11-11T03:47:51;5.50;99.90
21722;DHT22;11023;48.274;7.794;2022-11-11T03:50:20;5.50;99.90
21722;DHT22;11023;48.274;7.794;2022-11-11T03:52:46;5.40;99.90
21722;DHT22;11023;48.274;7.794;2022-11-11T03:55:13;5.40;99.90
21722;DHT22;11023;48.274;7.794;2022-11-11T03:57:44;5.30;99.90
21722;DHT22;11023;48.274;7.794;2022-11-11T04:00:13;5.40;99.90
21722;DHT22;11023;48.274;7.794;2022-11-11T04:02:39;5.40;99.90
21722;DHT22;11023;48.274;7.794;2022-11-11T04:05:26;5.40;99.90
21722;DHT22;11023;48.274;7.794;2022-11-11T04:08:16;5.40;99.90
21722;DHT22;11023;48.274;7.794;2022-11-11T04:11:23;5.40;99.90
21722;DHT22;11023;48.274;7.794;2022-11-11T04:13:49;5.40;99.90
21722;DHT22;11023;48.274;7.794;2022-11-11T04:16:34;5.40;99.90
21722;DHT22;11023;48.274;7.794;2022-11-11T04:19:00;5.30;99.90
21722;DHT22;11023;48.274;7.794;2022-11-11T04:21:44;5.30;99.90
21722;DHT22;11023;48.274;7.794;2022-11-11T04:24:15;5.30;99.90
21722;DHT22;11023;48.274;7.794;2022-11-11T04:27:01;5.30;99.90
21722;DHT22;11023;48.274;7.794;2022-11-11T04:29:28;5.20;99.90
21722;DHT22;11023;48.274;7.794;2022-11-11T04:32:02;5.20;99.90
21722;DHT22;11023;48.274;7.794;2022-11-11T04:34:52;5.20;99.90
21722;DHT22;11023;48.274;7.794;2022-11-11T04:37:20;5.10;99.90
21722;DHT22;11023;48.274;7.794;2022-11-11T04:39:46;5.10;99.90
21722;DHT22;11023;48.274;7.794;2022-11-11T04:42:32;5.00;99.90
21722;DHT22;11023;48.274;7.794;2022-11-11T04:44:59;5.00;99.90
21722;DHT22;11023;48.274;7.794;2022-11-11T04:48:09;5.00;99.90
21722;DHT22;11023;48.274;7.794;2022-11-11T04:50:37;5.00;99.90
21722;DHT22;11023;48.274;7.794;2022-11-11T04:53:04;4.90;99.90
21722;DHT22;11023;48.274;7.794;2022-11-11T04:55:31;5.00;99.90
21722;DHT22;11023;48.274;7.794;2022-11-11T04:58:18;4.90;99.90
21722;DHT22;11023;48.274;7.794;2022-11-11T05:00:44;4.90;99.90
21722;DHT22;11023;48.274;7.794;2022-11-11T05:03:13;5.00;99.90
21722;DHT22;11023;48.274;7.794;2022-11-11T05:05:45;5.00;99.90
21722;DHT22;11023;48.274;7.794;2022-11-11T05:08:30;5.00;99.90
21722;DHT22;11023;48.274;7.794;2022-11-11T05:11:16;5.00;99.90
21722;DHT22;11023;48.274;7.794;2022-11-11T05:13:42;5.00;99.90
21722;DHT22;11023;48.274;7.794;2022-11-11T05:16:29;5.00;99.90
21722;DHT22;11023;48.274;7.794;2022-11-11T05:19:15;5.00;99.90
21722;DHT22;11023;48.274;7.794;2022-11-11T05:22:33;4.90;99.90
21722;DHT22;11023;48.274;7.794;2022-11-11T05:25:00;4.90;99.90
21722;DHT22;11023;48.274;7.794;2022-11-11T05:27:44;4.80;99.90
21722;DHT22;11023;48.274;7.794;2022-11-11T05:30:12;4.80;99.90
21722;DHT22;11023;48.274;7.794;2022-11-11T05:32:39;4.80;99.90
21722;DHT22;11023;48.274;7.794;2022-11-11T05:35:06;4.90;99.90
21722;DHT22;11023;48.274;7.794;2022-11-11T05:37:32;4.80;99.90
21722;DHT22;11023;48.274;7.794;2022-11-11T05:39:57;4.80;99.90
21722;DHT22;11023;48.274;7.794;2022-11-11T05:42:23;4.90;99.90
21722;DHT22;11023;48.274;7.794;2022-11-11T05:44:49;4.80;99.90
21722;DHT22;11023;48.274;7.794;2022-11-11T05:47:15;4.80;99.90
21722;DHT22;11023;48.274;7.794;2022-11-11T05:49:40;4.80;99.90
21722;DHT22;11023;48.274;7.794;2022-11-11T05:52:07;4.80;99.90
21722;DHT22;11023;48.274;7.794;2022-11-11T05:54:34;4.90;99.90
21722;DHT22;11023;48.274;7.794;2022-11-11T05:56:59;4.90;99.90
21722;DHT22;11023;48.274;7.794;2022-11-11T05:59:25;4.90;99.90
21722;DHT22;11023;48.274;7.794;2022-11-11T06:01:51;4.90;99.90
21722;DHT22;11023;48.274;7.794;2022-11-11T06:04:17;4.90;99.90
21722;DHT22;11023;48.274;7.794;2022-11-11T06:06:42;4.90;99.90
21722;DHT22;11023;48.274;7.794;2022-11-11T06:09:08;4.90;99.90
21722;DHT22;11023;48.274;7.794;2022-11-11T06:11:34;5.00;99.90
21722;DHT22;11023;48.274;7.794;2022-11-11T06:13:59;5.00;99.90
21722;DHT22;11023;48.274;7.794;2022-11-11T06:16:25;5.00;99.90
21722;DHT22;11023;48.274;7.794;2022-11-11T06:18:52;5.00;99.90
21722;DHT22;11023;48.274;7.794;2022-11-11T06:21:17;5.00;99.90
21722;DHT22;11023;48.274;7.794;2022-11-11T06:23:43;5.00;99.90
21722;DHT22;11023;48.274;7.794;2022-11-11T06:26:11;5.00;99.90
21722;DHT22;11023;48.274;7.794;2022-11-11T06:28:54;4.90;99.90
21722;DHT22;11023;48.274;7.794;2022-11-11T06:31:25;5.00;99.90
21722;DHT22;11023;48.274;7.794;2022-11-11T06:33:51;4.90;99.90
21722;DHT22;11023;48.274;7.794;2022-11-11T06:36:19;5.00;99.90
21722;DHT22;11023;48.274;7.794;2022-11-11T06:38:45;5.00;99.90
21722;DHT22;11023;48.274;7.794;2022-11-11T06:41:12;4.90;99.90
21722;DHT22;11023;48.274;7.794;2022-11-11T06:43:42;4.90;99.90
21722;DHT22;11023;48.274;7.794;2022-11-11T06:46:22;4.90;99.90
21722;DHT22;11023;48.274;7.794;2022-11-11T06:48:48;4.90;99.90
21722;DHT22;11023;48.274;7.794;2022-11-11T06:51:14;4.90;99.90
21722;DHT22;11023;48.274;7.794;2022-11-11T06:53:41;4.90;99.90
21722;DHT22;11023;48.274;7.794;2022-11-11T06:56:07;5.00;99.90
21722;DHT22;11023;48.274;7.794;2022-11-11T06:58:34;5.00;99.90
21722;DHT22;11023;48.274;7.794;2022-11-11T07:01:06;5.00;99.90
21722;DHT22;11023;48.274;7.794;2022-11-11T07:03:32;5.00;99.90
21722;DHT22;11023;48.274;7.794;2022-11-11T07:06:02;5.00;99.90
21722;DHT22;11023;48.274;7.794;2022-11-11T07:08:28;5.00;99.90
21722;DHT22;11023;48.274;7.794;2022-11-11T07:10:54;5.00;99.90
21722;DHT22;11023;48.274;7.794;2022-11-11T07:13:20;5.00;99.90
21722;DHT22;11023;48.274;7.794;2022-11-11T07:15:46;5.00;99.90
21722;DHT22;11023;48.274;7.794;2022-11-11T07:18:12;5.00;99.90
21722;DHT22;11023;48.274;7.794;2022-11-11T07:20:38;5.10;99.90
21722;DHT22;11023;48.274;7.794;2022-11-11T07:23:04;5.10;99.90
21722;DHT22;11023;48.274;7.794;2022-11-11T07:25:30;5.10;99.90
21722;DHT22;11023;48.274;7.794;2022-11-11T07:27:56;5.10;99.90
21722;DHT22;11023;48.274;7.794;2022-11-11T07:30:22;5.20;99.90
21722;DHT22;11023;48.274;7.794;2022-11-11T07:32:50;5.10;99.90
21722;DHT22;11023;48.274;7.794;2022-11-11T07:35:16;5.10;99.90
21722;DHT22;11023;48.274;7.794;2022-11-11T07:37:43;5.20;99.90
21722;DHT22;11023;48.274;7.794;2022-11-11T07:40:11;5.20;99.90
21722;DHT22;11023;48.274;7.794;2022-11-11T07:42:39;5.20;99.90
21722;DHT22;11023;48.274;7.794;2022-11-11T07:45:06;5.30;99.90
21722;DHT22;11023;48.274;7.794;2022-11-11T07:47:32;5.30;99.90
21722;DHT22;11023;48.274;7.794;2022-11-11T07:49:59;5.30;99.90
21722;DHT22;11023;48.274;7.794;2022-11-11T07:52:25;5.30;99.90
21722;DHT22;11023;48.274;7.794;2022-11-11T07:54:51;5.40;99.90
21722;DHT22;11023;48.274;7.794;2022-11-11T07:57:16;5.40;99.90
21722;DHT22;11023;48.274;7.794;2022-11-11T07:59:42;5.50;99.90
21722;DHT22;11023;48.274;7.794;2022-11-11T08:02:11;5.60;99.90
21722;DHT22;11023;48.274;7.794;2022-11-11T08:04:37;5.60;99.90
21722;DHT22;11023;48.274;7.794;2022-11-11T08:07:03;5.70;99.90
21722;DHT22;11023;48.274;7.794;2022-11-11T08:09:29;5.80;99.90
21722;DHT22;11023;48.274;7.794;2022-11-11T08:11:55;5.80;99.90
21722;DHT22;11023;48.274;7.794;2022-11-11T08:14:39;5.90;99.90
21722;DHT22;11023;48.274;7.794;2022-11-11T08:17:05;5.90;99.90
21722;DHT22;11023;48.274;7.794;2022-11-11T08:19:30;6.00;99.90
21722;DHT22;11023;48.274;7.794;2022-11-11T08:21:56;6.10;99.90
21722;DHT22;11023;48.274;7.794;2022-11-11T08:24:22;6.10;99.90
21722;DHT22;11023;48.274;7.794;2022-11-11T08:26:48;6.20;99.90
21722;DHT22;11023;48.274;7.794;2022-11-11T08:29:14;6.20;99.90
21722;DHT22;11023;48.274;7.794;2022-11-11T08:31:40;6.30;99.90
21722;DHT22;11023;48.274;7.794;2022-11-11T08:34:05;6.40;99.90
21722;DHT22;11023;48.274;7.794;2022-11-11T08:36:31;6.50;99.90
21722;DHT22;11023;48.274;7.794;2022-11-11T08:38:57;6.60;99.90
21722;DHT22;11023;48.274;7.794;2022-11-11T08:41:23;6.70;99.90
21722;DHT22;11023;48.274;7.794;2022-11-11T08:43:53;6.90;99.90
21722;DHT22;11023;48.274;7.794;2022-11-11T08:46:19;7.00;99.90
21722;DHT22;11023;48.274;7.794;2022-11-11T08:48:44;7.10;99.90
21722;DHT22;11023;48.274;7.794;2022-11-11T08:51:10;7.20;99.90
21722;DHT22;11023;48.274;7.794;2022-11-11T08:53:35;7.30;99.90
21722;DHT22;11023;48.274;7.794;2022-11-11T08:56:02;7.40;99.90
21722;DHT22;11023;48.274;7.794;2022-11-11T08:58:28;7.40;99.90
21722;DHT22;11023;48.274;7.794;2022-11-11T09:00:54;7.50;99.90
21722;DHT22;11023;48.274;7.794;2022-11-11T09:03:20;7.50;99.90
21722;DHT22;11023;48.274;7.794;2022-11-11T09:05:45;7.60;99.90
21722;DHT22;11023;48.274;7.794;2022-11-11T09:08:12;7.70;99.90
21722;DHT22;11023;48.274;7.794;2022-11-11T09:10:38;7.80;99.90
21722;DHT22;11023;48.274;7.794;2022-11-11T09:13:04;7.80;99.90
21722;DHT22;11023;48.274;7.794;2022-11-11T09:15:30;7.90;99.90
21722;DHT22;11023;48.274;7.794;2022-11-11T09:17:56;8.00;99.90
21722;DHT22;11023;48.274;7.794;2022-11-11T09:20:22;8.10;99.90
21722;DHT22;11023;48.274;7.794;2022-11-11T09:22:48;8.20;99.90
21722;DHT22;11023;48.274;7.794;2022-11-11T09:25:15;8.30;99.90
21722;DHT22;11023;48.274;7.794;2022-11-11T09:27:41;8.40;99.90
21722;DHT22;11023;48.274;7.794;2022-11-11T09:30:08;8.50;99.90
21722;DHT22;11023;48.274;7.794;2022-11-11T09:32:34;8.60;99.90
21722;DHT22;11023;48.274;7.794;2022-11-11T09:34:59;8.70;99.90
21722;DHT22;11023;48.274;7.794;2022-11-11T09:37:26;8.70;99.90
21722;DHT22;11023;48.274;7.794;2022-11-11T09:39:52;8.80;99.90
21722;DHT22;11023;48.274;7.794;2022-11-11T09:42:44;8.90;99.90
21722;DHT22;11023;48.274;7.794;2022-11-11T09:45:34;9.00;99.90
21722;DHT22;11023;48.274;7.794;2022-11-11T09:50:53;9.20;99.90
21722;DHT22;11023;48.274;7.794;2022-11-11T09:53:27;9.30;99.90
21722;DHT22;11023;48.274;7.794;2022-11-11T09:55:59;9.40;99.90
21722;DHT22;11023;48.274;7.794;2022-11-11T09:58:36;9.50;99.90
21722;DHT22;11023;48.274;7.794;2022-11-11T10:01:13;9.60;99.90
21722;DHT22;11023;48.274;7.794;2022-11-11T10:03:47;9.70;99.90
21722;DHT22;11023;48.274;7.794;2022-11-11T10:06:22;9.70;99.90
21722;DHT22;11023;48.274;7.794;2022-11-11T10:08:58;9.70;99.90
21722;DHT22;11023;48.274;7.794;2022-11-11T10:14:17;9.90;99.90
21722;DHT22;11023;48.274;7.794;2022-11-11T10:19:35;10.00;99.90
21722;DHT22;11023;48.274;7.794;2022-11-11T10:22:34;10.00;99.90
21722;DHT22;11023;48.274;7.794;2022-11-11T10:27:28;10.10;99.90
21722;DHT22;11023;48.274;7.794;2022-11-11T10:29:55;10.20;99.90
21722;DHT22;11023;48.274;7.794;2022-11-11T10:32:31;10.20;99.90
21722;DHT22;11023;48.274;7.794;2022-11-11T10:35:26;10.20;99.90
21722;DHT22;11023;48.274;7.794;2022-11-11T10:38:21;10.30;99.90
21722;DHT22;11023;48.274;7.794;2022-11-11T10:40:52;10.40;99.90
21722;DHT22;11023;48.274;7.794;2022-11-11T10:43:26;10.40;99.90
21722;DHT22;11023;48.274;7.794;2022-11-11T10:46:06;10.40;99.90
21722;DHT22;11023;48.274;7.794;2022-11-11T10:48:44;10.60;99.90
21722;DHT22;11023;48.274;7.794;2022-11-11T10:51:14;10.60;99.90
21722;DHT22;11023;48.274;7.794;2022-11-11T10:53:53;10.70;99.90
21722;DHT22;11023;48.274;7.794;2022-11-11T10:59:32;10.90;99.90
21722;DHT22;11023;48.274;7.794;2022-11-11T11:02:05;10.90;99.90
21722;DHT22;11023;48.274;7.794;2022-11-11T11:04:39;11.00;99.90
21722;DHT22;11023;48.274;7.794;2022-11-11T11:07:09;11.00;99.90
21722;DHT22;11023;48.274;7.794;2022-11-11T11:09:58;11.10;99.90
21722;DHT22;11023;48.274;7.794;2022-11-11T11:13:02;11.20;99.90
21722;DHT22;11023;48.274;7.794;2022-11-11T11:15:31;11.30;99.90
21722;DHT22;11023;48.274;7.794;2022-11-11T11:18:14;11.40;99.90
21722;DHT22;11023;48.274;7.794;2022-11-11T11:23:40;11.60;99.90
21722;DHT22;11023;48.274;7.794;2022-11-11T11:26:11;11.60;99.90
21722;DHT22;11023;48.274;7.794;2022-11-11T11:28:55;11.60;99.90
21722;DHT22;11023;48.274;7.794;2022-11-11T11:31:40;11.70;99.90
21722;DHT22;11023;48.274;7.794;2022-11-11T11:34:07;11.80;99.90
21722;DHT22;11023;48.274;7.794;2022-11-11T11:36:33;11.80;99.90
21722;DHT22;11023;48.274;7.794;2022-11-11T11:38:59;11.90;99.90
21722;DHT22;11023;48.274;7.794;2022-11-11T11:41:42;11.90;99.90
21722;DHT22;11023;48.274;7.794;2022-11-11T11:44:30;11.90;99.90
21722;DHT22;11023;48.274;7.794;2022-11-11T11:50:27;12.10;99.90
21722;DHT22;11023;48.274;7.794;2022-11-11T11:55:31;12.40;99.90
21722;DHT22;11023;48.274;7.794;2022-11-11T11:58:29;12.50;99.90
21722;DHT22;11023;48.274;7.794;2022-11-11T12:01:04;12.60;99.90
21722;DHT22;11023;48.274;7.794;2022-11-11T12:11:49;12.70;99.90
21722;DHT22;11023;48.274;7.794;2022-11-11T12:17:35;12.90;99.90
21722;DHT22;11023;48.274;7.794;2022-11-11T12:29:08;13.30;99.90
21722;DHT22;11023;48.274;7.794;2022-11-11T12:34:09;13.30;99.90
21722;DHT22;11023;48.274;7.794;2022-11-11T12:39:28;13.50;99.90
21722;DHT22;11023;48.274;7.794;2022-11-11T12:42:10;13.60;99.90
21722;DHT22;11023;48.274;7.794;2022-11-11T12:45:04;13.60;99.90
21722;DHT22;11023;48.274;7.794;2022-11-11T12:50:29;13.70;99.90
21722;DHT22;11023;48.274;7.794;2022-11-11T12:59:14;13.50;99.90
21722;DHT22;11023;48.274;7.794;2022-11-11T13:02:16;13.50;99.90
21722;DHT22;11023;48.274;7.794;2022-11-11T13:04:55;13.60;99.90
21722;DHT22;11023;48.274;7.794;2022-11-11T13:12:46;13.80;99.90
21722;DHT22;11023;48.274;7.794;2022-11-11T13:15:23;13.80;99.90
21722;DHT22;11023;48.274;7.794;2022-11-11T13:17:50;13.80;99.90
21722;DHT22;11023;48.274;7.794;2022-11-11T13:23:09;13.80;99.90
21722;DHT22;11023;48.274;7.794;2022-11-11T13:25:46;13.80;99.90
21722;DHT22;11023;48.274;7.794;2022-11-11T13:33:47;13.70;99.90
21722;DHT22;11023;48.274;7.794;2022-11-11T13:36:20;13.70;99.90
21722;DHT22;11023;48.274;7.794;2022-11-11T13:38:53;13.70;99.90
21722;DHT22;11023;48.274;7.794;2022-11-11T13:41:35;13.60;99.90
21722;DHT22;11023;48.274;7.794;2022-11-11T13:44:04;13.40;99.90
21722;DHT22;11023;48.274;7.794;2022-11-11T13:46:47;13.50;99.90
21722;DHT22;11023;48.274;7.794;2022-11-11T13:49:37;13.40;99.90
21722;DHT22;11023;48.274;7.794;2022-11-11T13:52:23;13.30;99.90
21722;DHT22;11023;48.274;7.794;2022-11-11T13:54:57;13.30;99.90
21722;DHT22;11023;48.274;7.794;2022-11-11T13:57:24;13.30;99.90
21722;DHT22;11023;48.274;7.794;2022-11-11T14:02:26;13.20;99.90
21722;DHT22;11023;48.274;7.794;2022-11-11T14:12:47;13.20;99.90
21722;DHT22;11023;48.274;7.794;2022-11-11T14:20:44;13.30;99.90
21722;DHT22;11023;48.274;7.794;2022-11-11T14:23:41;13.30;99.90
21722;DHT22;11023;48.274;7.794;2022-11-11T14:28:54;13.30;99.90
21722;DHT22;11023;48.274;7.794;2022-11-11T14:33:54;13.20;99.90
21722;DHT22;11023;48.274;7.794;2022-11-11T14:39:31;13.00;99.90
21722;DHT22;11023;48.274;7.794;2022-11-11T14:41:59;12.90;99.90
21722;DHT22;11023;48.274;7.794;2022-11-11T14:49:53;12.70;99.90
21722;DHT22;11023;48.274;7.794;2022-11-11T14:52:33;12.70;99.90
21722;DHT22;11023;48.274;7.794;2022-11-11T15:00:26;12.40;99.90
21722;DHT22;11023;48.274;7.794;2022-11-11T15:03:12;12.20;99.90
21722;DHT22;11023;48.274;7.794;2022-11-11T15:08:22;12.10;99.90
21722;DHT22;11023;48.274;7.794;2022-11-11T15:26:12;11.50;99.90
21722;DHT22;11023;48.274;7.794;2022-11-11T15:34:25;11.10;99.90
21722;DHT22;11023;48.274;7.794;2022-11-11T15:37:02;10.90;99.90
21722;DHT22;11023;48.274;7.794;2022-11-11T15:39:50;10.80;99.90
21722;DHT22;11023;48.274;7.794;2022-11-11T15:42:35;10.80;99.90
21722;DHT22;11023;48.274;7.794;2022-11-11T15:45:29;10.60;99.90
21722;DHT22;11023;48.274;7.794;2022-11-11T15:47:52;10.50;99.90
21722;DHT22;11023;48.274;7.794;2022-11-11T15:50:38;10.40;99.90
21722;DHT22;11023;48.274;7.794;2022-11-11T15:53:09;10.30;99.90
21722;DHT22;11023;48.274;7.794;2022-11-11T15:55:35;10.30;99.90
21722;DHT22;11023;48.274;7.794;2022-11-11T15:58:15;10.20;99.90
21722;DHT22;11023;48.274;7.794;2022-11-11T16:00:41;10.10;99.90
21722;DHT22;11023;48.274;7.794;2022-11-11T16:03:24;10.00;99.90
21722;DHT22;11023;48.274;7.794;2022-11-11T16:05:51;10.00;99.90
21722;DHT22;11023;48.274;7.794;2022-11-11T16:08:19;10.00;99.90
21722;DHT22;11023;48.274;7.794;2022-11-11T16:10:46;10.00;99.90
21722;DHT22;11023;48.274;7.794;2022-11-11T16:13:24;9.90;99.90
21722;DHT22;11023;48.274;7.794;2022-11-11T16:15:55;9.80;99.90
21722;DHT22;11023;48.274;7.794;2022-11-11T16:18:31;9.70;99.90
21722;DHT22;11023;48.274;7.794;2022-11-11T16:21:05;9.70;99.90
21722;DHT22;11023;48.274;7.794;2022-11-11T16:23:32;9.60;99.90
21722;DHT22;11023;48.274;7.794;2022-11-11T16:25:58;9.60;99.90
21722;DHT22;11023;48.274;7.794;2022-11-11T16:28:26;9.50;99.90
21722;DHT22;11023;48.274;7.794;2022-11-11T16:30:53;9.40;99.90
21722;DHT22;11023;48.274;7.794;2022-11-11T16:35:50;9.40;99.90
21722;DHT22;11023;48.274;7.794;2022-11-11T16:38:30;9.30;99.90
21722;DHT22;11023;48.274;7.794;2022-11-11T16:40:56;9.20;99.90
21722;DHT22;11023;48.274;7.794;2022-11-11T16:51:07;9.20;99.90
21722;DHT22;11023;48.274;7.794;2022-11-11T16:53:39;9.20;99.90
21722;DHT22;11023;48.274;7.794;2022-11-11T16:56:24;9.10;99.90
21722;DHT22;11023;48.274;7.794;2022-11-11T16:59:06;9.00;99.90
21722;DHT22;11023;48.274;7.794;2022-11-11T17:01:42;9.00;99.90
21722;DHT22;11023;48.274;7.794;2022-11-11T17:04:08;9.00;99.90
21722;DHT22;11023;48.274;7.794;2022-11-11T17:06:55;9.00;99.90
21722;DHT22;11023;48.274;7.794;2022-11-11T17:11:55;9.00;99.90
21722;DHT22;11023;48.274;7.794;2022-11-11T17:14:21;9.00;99.90
21722;DHT22;11023;48.274;7.794;2022-11-11T17:16:47;9.00;99.90
21722;DHT22;11023;48.274;7.794;2022-11-11T17:19:12;9.00;99.90
21722;DHT22;11023;48.274;7.794;2022-11-11T17:21:38;9.00;99.90
21722;DHT22;11023;48.274;7.794;2022-11-11T17:24:04;9.00;99.90
21722;DHT22;11023;48.274;7.794;2022-11-11T17:26:29;9.00;99.90
21722;DHT22;11023;48.274;7.794;2022-11-11T17:28:56;9.00;99.90
21722;DHT22;11023;48.274;7.794;2022-11-11T17:31:22;9.00;99.90
21722;DHT22;11023;48.274;7.794;2022-11-11T17:33:51;9.10;99.90
21722;DHT22;11023;48.274;7.794;2022-11-11T17:36:17;9.00;99.90
21722;DHT22;11023;48.274;7.794;2022-11-11T17:38:42;9.10;99.90
21722;DHT22;11023;48.274;7.794;2022-11-11T17:41:12;9.10;99.90
21722;DHT22;11023;48.274;7.794;2022-11-11T17:43:38;9.10;99.90
21722;DHT22;11023;48.274;7.794;2022-11-11T17:46:04;9.10;99.90
21722;DHT22;11023;48.274;7.794;2022-11-11T17:48:30;9.20;99.90
21722;DHT22;11023;48.274;7.794;2022-11-11T17:50:56;9.20;99.90
21722;DHT22;11023;48.274;7.794;2022-11-11T17:53:21;9.20;99.90
21722;DHT22;11023;48.274;7.794;2022-11-11T17:55:47;9.20;99.90
21722;DHT22;11023;48.274;7.794;2022-11-11T17:58:13;9.20;99.90
21722;DHT22;11023;48.274;7.794;2022-11-11T18:00:39;9.20;99.90
21722;DHT22;11023;48.274;7.794;2022-11-11T18:03:07;9.20;99.90
21722;DHT22;11023;48.274;7.794;2022-11-11T18:05:33;9.20;99.90
21722;DHT22;11023;48.274;7.794;2022-11-11T18:07:59;9.20;99.90
21722;DHT22;11023;48.274;7.794;2022-11-11T18:10:26;9.20;99.90
21722;DHT22;11023;48.274;7.794;2022-11-11T18:12:52;9.20;99.90
21722;DHT22;11023;48.274;7.794;2022-11-11T18:15:18;9.20;99.90
21722;DHT22;11023;48.274;7.794;2022-11-11T18:17:44;9.20;99.90
21722;DHT22;11023;48.274;7.794;2022-11-11T18:20:11;9.20;99.90
21722;DHT22;11023;48.274;7.794;2022-11-11T18:22:37;9.20;99.90
21722;DHT22;11023;48.274;7.794;2022-11-11T18:25:03;9.20;99.90
21722;DHT22;11023;48.274;7.794;2022-11-11T18:27:28;9.20;99.90
21722;DHT22;11023;48.274;7.794;2022-11-11T18:29:54;9.20;99.90
21722;DHT22;11023;48.274;7.794;2022-11-11T18:32:20;9.20;99.90
21722;DHT22;11023;48.274;7.794;2022-11-11T18:34:45;9.10;99.90
21722;DHT22;11023;48.274;7.794;2022-11-11T18:37:11;9.10;99.90
21722;DHT22;11023;48.274;7.794;2022-11-11T18:39:37;9.10;99.90
21722;DHT22;11023;48.274;7.794;2022-11-11T18:42:02;9.10;99.90